Time;durP1;ratioP1;P1;durP2;ratioP2;P2;SDS_P1;SDS_P2;PMS_P1;PMS_P2;Temp;Humidity;BMP_temperature;BMP_pressure;BME280_temperature;BME280_humidity;BME280_pressure;Samples;Min_cycle;Max_cycle;Signal;HPM_P1;HPM_P2
2023/06/23 00:00:14;;;;;;;10.60;8.70;;;;;;;26.21;60.99;101820.23;106906;1274;25382;-49
2023/06/23 00:02:42;;;;;;;9.10;8.30;;;;;;;26.20;61.03;101819.05;106829;1257;25329;-50
2023/06/23 00:05:09;;;;;;;10.20;9.20;;;;;;;26.19;60.88;101820.39;107141;1266;25401;-50
2023/06/23 00:07:37;;;;;;;9.20;8.30;;;;;;;26.17;60.59;101819.80;107157;1265;25348;-49
2023/06/23 00:10:05;;;;;;;9.40;8.50;;;;;;;26.15;60.36;101818.13;107189;1264;25405;-50
2023/06/23 00:12:34;;;;;;;12.10;8.50;;;;;;;26.14;60.34;101815.95;107021;1262;22527;-50
2023/06/23 00:15:07;;;;;;;10.90;9.30;;;;;;;26.13;60.19;101821.71;106871;1272;24199;-49
2023/06/23 00:17:36;;;;;;;9.50;8.60;;;;;;;26.10;60.21;101820.98;107221;1265;22657;-49
2023/06/23 00:20:10;;;;;;;9.80;8.90;;;;;;;26.08;60.47;101823.45;107191;1264;25345;-49
2023/06/23 00:22:38;;;;;;;11.00;9.90;;;;;;;26.06;60.47;101816.29;107119;1264;25389;-49
2023/06/23 00:25:05;;;;;;;11.30;9.40;;;;;;;26.03;60.53;101815.42;107049;1257;25392;-50
2023/06/23 00:27:32;;;;;;;10.30;9.40;;;;;;;26.01;60.37;101818.04;106884;1268;24218;-49
2023/06/23 00:29:59;;;;;;;11.60;10.40;;;;;;;26.00;60.21;101817.25;106743;1257;25405;-49
2023/06/23 00:32:27;;;;;;;11.00;9.90;;;;;;;25.98;60.00;101818.83;106816;1266;25559;-51
2023/06/23 00:34:54;;;;;;;10.30;9.30;;;;;;;25.96;60.01;101819.64;107092;1260;25338;-51
2023/06/23 00:37:22;;;;;;;11.20;9.80;;;;;;;25.94;60.17;101818.73;107097;1254;23919;-49
2023/06/23 00:39:49;;;;;;;13.10;10.70;;;;;;;25.91;60.23;101814.98;107237;1262;25332;-49
2023/06/23 00:42:16;;;;;;;12.80;11.40;;;;;;;25.89;60.23;101810.19;107079;1265;25388;-51
2023/06/23 00:44:43;;;;;;;13.40;11.60;;;;;;;25.87;60.16;101815.30;107052;1263;25450;-51
2023/06/23 00:47:10;;;;;;;13.70;12.30;;;;;;;25.85;60.01;101818.63;107128;1257;25402;-50
2023/06/23 00:49:37;;;;;;;12.80;11.40;;;;;;;25.82;60.07;101816.46;107088;1259;22532;-51
2023/06/23 00:52:07;;;;;;;14.20;11.60;;;;;;;25.81;60.20;101814.59;107099;1266;25412;-51
2023/06/23 00:54:35;;;;;;;13.00;11.40;;;;;;;25.80;60.12;101818.21;107183;1256;25409;-51
2023/06/23 00:57:03;;;;;;;12.80;11.50;;;;;;;25.79;60.15;101816.55;106931;1268;25361;-51
2023/06/23 00:59:30;;;;;;;11.80;10.70;;;;;;;25.77;60.16;101817.59;107094;1256;25421;-52
2023/06/23 01:01:59;;;;;;;10.90;9.80;;;;;;;25.75;60.12;101815.92;106650;1269;26146;-50
2023/06/23 01:04:27;;;;;;;10.80;9.70;;;;;;;25.72;60.21;101810.41;106965;1266;25323;-51
2023/06/23 01:07:27;;;;;;;10.90;9.70;;;;;;;25.71;60.43;101808.94;107134;1257;25383;-49
2023/06/23 01:10:14;;;;;;;10.70;9.30;;;;;;;25.69;60.58;101812.95;106440;1264;25339;-51
2023/06/23 01:12:48;;;;;;;10.50;9.50;;;;;;;25.67;60.47;101809.52;106328;1264;25336;-51
2023/06/23 01:15:18;;;;;;;10.90;9.40;;;;;;;25.67;60.63;101805.30;106447;1265;25442;-51
2023/06/23 01:17:52;;;;;;;9.60;8.70;;;;;;;25.65;60.40;101802.92;106359;1272;25308;-51
2023/06/23 01:20:24;;;;;;;10.70;8.80;;;;;;;25.64;60.32;101804.42;106330;1274;25488;-51
2023/06/23 01:23:19;;;;;;;9.20;8.40;;;;;;;25.62;60.33;101801.02;106173;1279;25397;-51
2023/06/23 01:25:54;;;;;;;10.20;9.10;;;;;;;25.60;60.47;101802.36;106380;1274;25589;-51
2023/06/23 01:28:43;;;;;;;11.90;8.20;;;;;;;25.58;60.55;101796.81;106373;1274;25367;-50
2023/06/23 01:31:13;;;;;;;9.00;8.10;;;;;;;25.57;60.83;101800.10;106312;1260;25528;-50
2023/06/23 01:33:56;;;;;;;8.60;7.70;;;;;;;25.56;60.81;101801.95;106289;1273;27243;-50
2023/06/23 01:36:27;;;;;;;11.90;7.60;;;;;;;25.56;60.70;101801.45;106424;1274;22614;-49
2023/06/23 01:38:56;;;;;;;10.60;8.30;;;;;;;25.55;60.54;101801.69;106337;1272;22136;-51
2023/06/23 01:41:26;;;;;;;10.90;7.60;;;;;;;25.54;60.47;101801.39;106035;1264;22581;-52
2023/06/23 01:43:55;;;;;;;9.20;8.10;;;;;;;25.53;60.36;101801.09;106007;1280;25349;-51
2023/06/23 01:46:26;;;;;;;9.50;7.80;;;;;;;25.52;60.46;101802.22;106345;1269;22516;-50
2023/06/23 01:48:57;;;;;;;9.00;6.90;;;;;;;25.51;60.41;101805.99;106887;1263;24273;-50
2023/06/23 01:51:25;;;;;;;7.70;6.90;;;;;;;25.51;60.47;101806.77;107170;1262;22486;-52
2023/06/23 01:53:52;;;;;;;7.70;7.00;;;;;;;25.50;60.60;101805.75;107074;1268;25482;-50
2023/06/23 01:56:19;;;;;;;9.40;7.80;;;;;;;25.48;60.58;101806.40;106906;1269;24208;-50
2023/06/23 01:58:46;;;;;;;9.10;8.10;;;;;;;25.47;60.96;101806.84;106793;1268;25408;-51
2023/06/23 02:01:13;;;;;;;7.80;7.00;;;;;;;25.46;60.91;101805.33;106997;1269;25332;-50
2023/06/23 02:03:41;;;;;;;7.70;7.00;;;;;;;25.45;61.01;101807.86;107095;1262;25362;-51
2023/06/23 02:06:09;;;;;;;8.30;6.60;;;;;;;25.44;61.13;101805.61;107199;1265;25335;-50
2023/06/23 02:08:36;;;;;;;6.80;6.10;;;;;;;25.44;61.06;101805.60;107072;1271;22547;-51
2023/06/23 02:11:03;;;;;;;9.00;6.30;;;;;;;25.44;60.96;101804.73;107092;1265;25360;-51
2023/06/23 02:13:30;;;;;;;7.40;6.30;;;;;;;25.44;60.81;101805.81;106860;1257;25360;-50
2023/06/23 02:16:01;;;;;;;7.20;6.20;;;;;;;25.43;60.86;101805.15;106844;1268;25565;-50
2023/06/23 02:18:28;;;;;;;6.20;5.60;;;;;;;25.43;60.97;101806.20;106966;1263;24178;-50
2023/06/23 02:20:55;;;;;;;6.20;5.60;;;;;;;25.44;61.03;101807.92;106808;1269;25335;-50
2023/06/23 02:23:24;;;;;;;6.80;5.70;;;;;;;25.44;61.32;101808.81;107012;1262;25453;-50
2023/06/23 02:25:51;;;;;;;5.80;5.30;;;;;;;25.46;61.50;101810.30;107109;1255;25431;-49
2023/06/23 02:28:19;;;;;;;5.70;5.20;;;;;;;25.47;61.47;101812.86;107036;1259;25345;-50
2023/06/23 02:30:46;;;;;;;6.40;5.80;;;;;;;25.49;61.65;101814.18;107141;1256;22539;-50
2023/06/23 02:33:13;;;;;;;7.80;5.80;;;;;;;25.51;61.84;101814.02;106913;1259;25396;-50
2023/06/23 02:35:42;;;;;;;7.70;6.50;;;;;;;25.52;62.00;101812.14;106884;1267;25354;-50
2023/06/23 02:38:09;;;;;;;6.00;5.50;;;;;;;25.53;61.96;101813.48;107146;1265;25334;-52
2023/06/23 02:40:36;;;;;;;5.80;5.30;;;;;;;25.55;62.02;101814.98;107061;1269;22546;-51
2023/06/23 02:43:17;;;;;;;5.70;5.10;;;;;;;25.57;62.07;101817.89;106993;1265;25360;-51
2023/06/23 02:45:47;;;;;;;5.90;5.30;;;;;;;25.60;62.10;101818.77;107147;1265;25312;-50
2023/06/23 02:48:17;;;;;;;8.20;6.00;;;;;;;25.61;62.16;101819.55;107166;1256;25340;-50
2023/06/23 02:50:44;;;;;;;5.80;5.20;;;;;;;25.62;62.11;101823.59;107034;1269;24212;-50
2023/06/23 02:53:16;;;;;;;6.70;5.70;;;;;;;25.63;62.37;101824.92;106949;1257;23098;-50
2023/06/23 02:55:46;;;;;;;6.10;5.50;;;;;;;25.64;62.31;101824.84;106961;1266;24249;-50
2023/06/23 02:58:15;;;;;;;7.00;5.50;;;;;;;25.66;62.31;101821.73;106970;1268;23452;-52
2023/06/23 03:00:42;;;;;;;5.80;5.30;;;;;;;25.67;62.32;101826.42;106728;1260;22521;-50
2023/06/23 03:03:13;;;;;;;7.70;5.50;;;;;;;25.69;62.47;101828.42;106877;1269;25389;-50
2023/06/23 03:05:42;;;;;;;6.20;5.70;;;;;;;25.70;62.50;101831.55;107032;1256;25434;-50
2023/06/23 03:08:09;;;;;;;5.90;5.50;;;;;;;25.72;62.45;101832.85;106794;1259;25350;-49
2023/06/23 03:10:36;;;;;;;5.90;5.40;;;;;;;25.75;62.45;101834.60;106991;1263;25395;-50
2023/06/23 03:13:04;;;;;;;5.80;5.20;;;;;;;25.76;62.49;101835.22;107012;1255;25392;-50
2023/06/23 03:15:31;;;;;;;6.20;5.70;;;;;;;25.77;62.54;101834.07;106918;1270;25375;-51
2023/06/23 03:18:03;;;;;;;7.00;6.00;;;;;;;25.78;62.74;101833.81;106961;1266;25248;-50
2023/06/23 03:20:50;;;;;;;6.20;5.70;;;;;;;25.80;62.78;101834.26;107076;1254;22653;-50
2023/06/23 03:23:17;;;;;;;6.50;5.90;;;;;;;25.82;62.94;101832.50;106746;1260;25226;-50
2023/06/23 03:25:46;;;;;;;5.70;5.20;;;;;;;25.84;63.10;101829.33;106865;1269;22526;-50
2023/06/23 03:28:25;;;;;;;5.60;5.10;;;;;;;25.87;63.15;101832.17;107131;1266;22530;-50
2023/06/23 03:30:57;;;;;;;5.60;4.90;;;;;;;25.91;63.43;101833.87;107077;1260;25301;-51
2023/06/23 03:33:32;;;;;;;5.80;5.40;;;;;;;25.95;63.61;101838.92;107017;1271;22519;-51
2023/06/23 03:36:21;;;;;;;5.90;5.40;;;;;;;26.01;64.00;101837.66;106930;1266;22527;-51
2023/06/23 03:39:02;;;;;;;5.60;5.10;;;;;;;26.07;65.12;101835.47;106952;1266;22539;-52
2023/06/23 03:41:31;;;;;;;7.40;6.20;;;;;;;26.15;66.39;101834.88;107074;1265;25321;-51
2023/06/23 03:43:59;;;;;;;6.10;5.60;;;;;;;26.31;67.91;101831.27;106996;1263;22526;-51
2023/06/23 03:46:44;;;;;;;6.60;6.10;;;;;;;26.59;68.74;101826.91;106901;1268;22522;-50
2023/06/23 03:49:11;;;;;;;5.70;4.80;;;;;;;26.99;68.02;101824.31;107217;1266;25360;-50
2023/06/23 03:51:38;;;;;;;5.60;5.20;;;;;;;27.34;67.04;101824.73;106963;1269;25481;-51
2023/06/23 03:54:05;;;;;;;5.30;4.90;;;;;;;27.69;66.02;101823.52;106969;1268;25394;-50
2023/06/23 03:56:34;;;;;;;5.20;4.50;;;;;;;28.06;65.01;101819.17;106605;1269;25408;-51
2023/06/23 03:59:00;;;;;;;6.40;5.40;;;;;;;28.43;63.50;101818.95;106878;1261;22635;-51
2023/06/23 04:01:28;;;;;;;6.30;5.10;;;;;;;28.71;62.45;101812.93;107177;1263;25350;-51
2023/06/23 04:03:56;;;;;;;4.90;4.50;;;;;;;28.92;61.15;101813.88;107056;1262;23187;-50
2023/06/23 04:06:24;;;;;;;4.90;4.50;;;;;;;29.07;59.94;101819.80;106867;1269;22544;-50
2023/06/23 04:08:55;;;;;;;4.70;4.40;;;;;;;29.16;59.48;101822.25;107095;1256;25350;-51
2023/06/23 04:11:22;;;;;;;4.90;4.40;;;;;;;29.26;59.21;101823.01;106963;1265;25482;-51
2023/06/23 04:13:50;;;;;;;5.10;4.40;;;;;;;29.41;58.84;101823.70;106746;1274;25403;-51
2023/06/23 04:16:17;;;;;;;4.30;3.90;;;;;;;29.67;58.20;101825.64;107079;1260;25360;-50
2023/06/23 04:18:44;;;;;;;4.50;4.20;;;;;;;29.92;57.13;101827.42;106955;1265;25385;-50
2023/06/23 04:21:12;;;;;;;5.40;4.30;;;;;;;30.05;56.14;101824.48;106899;1266;25360;-50
2023/06/23 04:23:39;;;;;;;4.60;4.20;;;;;;;30.06;55.56;101825.27;107277;1263;25332;-50
2023/06/23 04:26:08;;;;;;;4.70;4.30;;;;;;;30.01;55.34;101825.58;106891;1269;25411;-50
2023/06/23 04:28:35;;;;;;;4.90;4.40;;;;;;;29.91;55.33;101832.52;106843;1267;25369;-50
2023/06/23 04:31:05;;;;;;;4.80;4.20;;;;;;;29.79;55.52;101833.77;106980;1259;22774;-50
2023/06/23 04:33:32;;;;;;;4.80;4.30;;;;;;;29.66;55.70;101833.90;107077;1263;25478;-50
2023/06/23 04:36:03;;;;;;;4.90;4.50;;;;;;;29.55;55.70;101833.60;107029;1263;25391;-51
2023/06/23 04:38:30;;;;;;;4.70;4.30;;;;;;;29.43;55.92;101831.40;106718;1268;24394;-51
2023/06/23 04:40:57;;;;;;;6.00;4.10;;;;;;;29.33;56.19;101828.69;106716;1271;23875;-50
2023/06/23 04:43:41;;;;;;;4.50;4.20;;;;;;;29.23;56.32;101825.77;106743;1268;22525;-50
2023/06/23 04:46:16;;;;;;;4.70;4.30;;;;;;;29.13;56.88;101825.33;106717;1268;25367;-50
2023/06/23 04:48:54;;;;;;;4.50;4.10;;;;;;;29.06;57.41;101826.52;106811;1266;25279;-50
2023/06/23 04:51:27;;;;;;;5.80;4.40;;;;;;;28.98;57.77;101823.91;106810;1269;25428;-49
2023/06/23 04:53:57;;;;;;;5.30;4.90;;;;;;;28.92;58.00;101825.64;106767;1268;24205;-50
2023/06/23 04:56:28;;;;;;;5.00;4.60;;;;;;;28.88;58.47;101827.74;106728;1273;25487;-50
2023/06/23 04:58:56;;;;;;;4.90;4.30;;;;;;;28.85;58.83;101826.25;106689;1273;24376;-51
2023/06/23 05:01:22;;;;;;;4.80;4.40;;;;;;;28.83;58.91;101826.58;106727;1268;25502;-49
2023/06/23 05:03:50;;;;;;;4.90;4.50;;;;;;;28.84;59.11;101826.85;106656;1266;25318;-49
2023/06/23 05:06:17;;;;;;;5.00;4.60;;;;;;;28.90;59.28;101830.30;106871;1269;25356;-50
2023/06/23 05:08:46;;;;;;;4.90;4.30;;;;;;;29.00;59.13;101828.97;106859;1266;22540;-50
2023/06/23 05:11:14;;;;;;;5.00;4.50;;;;;;;29.17;58.90;101830.78;106839;1268;25443;-50
2023/06/23 05:13:41;;;;;;;5.00;4.40;;;;;;;29.39;58.15;101834.41;107003;1261;23734;-51
2023/06/23 05:16:10;;;;;;;4.20;3.90;;;;;;;29.66;57.46;101835.75;107044;1267;25401;-50
2023/06/23 05:18:38;;;;;;;4.60;4.30;;;;;;;30.00;56.43;101841.73;107023;1266;25505;-50
2023/06/23 05:21:05;;;;;;;4.30;3.90;;;;;;;30.38;55.06;101840.19;107128;1257;25284;-50
2023/06/23 05:23:36;;;;;;;4.70;4.30;;;;;;;30.79;53.67;101838.34;106960;1269;25412;-50
2023/06/23 05:26:19;;;;;;;4.10;3.80;;;;;;;31.27;52.41;101842.75;107099;1268;25409;-50
2023/06/23 05:28:46;;;;;;;4.80;4.10;;;;;;;31.71;50.53;101842.20;106665;1275;25360;-50
2023/06/23 05:31:13;;;;;;;4.70;4.30;;;;;;;32.12;47.97;101843.32;106845;1266;25360;-50
2023/06/23 05:33:42;;;;;;;5.70;4.60;;;;;;;32.44;46.22;101848.33;106958;1267;25318;-51
2023/06/23 05:36:10;;;;;;;4.40;4.10;;;;;;;32.64;44.22;101840.20;107058;1265;25392;-51
2023/06/23 05:38:39;;;;;;;5.60;3.90;;;;;;;32.75;43.52;101837.34;106892;1271;25329;-50
2023/06/23 05:41:06;;;;;;;4.20;3.80;;;;;;;32.80;43.13;101838.77;106984;1267;25350;-50
2023/06/23 05:43:33;;;;;;;4.60;4.20;;;;;;;32.82;42.12;101838.77;106984;1267;25321;-51
2023/06/23 05:46:00;;;;;;;4.60;4.20;;;;;;;32.84;41.28;101839.73;106898;1269;25330;-50
2023/06/23 05:48:51;;;;;;;4.80;4.30;;;;;;;32.86;40.42;101839.32;106680;1262;25593;-51
2023/06/23 05:51:25;;;;;;;4.90;4.40;;;;;;;32.92;40.12;101842.15;106347;1272;25360;-50
2023/06/23 05:53:54;;;;;;;4.80;4.40;;;;;;;33.02;40.35;101843.19;106363;1275;24398;-50
2023/06/23 05:56:25;;;;;;;5.50;4.30;;;;;;;33.17;40.94;101842.04;106274;1278;25332;-51
2023/06/23 05:58:55;;;;;;;4.10;3.80;;;;;;;33.37;40.98;101842.08;106394;1270;22536;-49
2023/06/23 06:01:22;;;;;;;4.50;4.10;;;;;;;33.59;40.40;101841.30;106313;1273;22533;-50
2023/06/23 06:04:14;;;;;;;4.90;4.40;;;;;;;33.81;39.63;101840.63;106348;1280;25388;-50
2023/06/23 06:06:42;;;;;;;5.80;5.10;;;;;;;33.99;38.93;101851.53;106306;1276;25419;-50
2023/06/23 06:09:10;;;;;;;5.60;5.10;;;;;;;34.04;38.56;101853.57;106263;1275;24268;-50
2023/06/23 06:11:38;;;;;;;5.40;4.80;;;;;;;34.00;38.41;101852.77;106354;1272;22574;-50
2023/06/23 06:14:07;;;;;;;5.70;4.80;;;;;;;33.89;38.37;101848.64;106105;1282;25603;-49
2023/06/23 06:16:35;;;;;;;5.60;5.00;;;;;;;33.81;38.88;101847.16;106359;1272;24195;-50
2023/06/23 06:19:03;;;;;;;5.50;5.00;;;;;;;33.79;39.34;101848.06;106375;1273;25356;-49
2023/06/23 06:21:32;;;;;;;5.40;5.00;;;;;;;33.83;39.47;101849.27;106401;1273;25822;-50
2023/06/23 06:23:59;;;;;;;5.30;4.90;;;;;;;33.87;39.51;101849.58;106332;1275;25332;-49
2023/06/23 06:26:26;;;;;;;5.40;5.00;;;;;;;33.89;39.54;101846.83;106263;1273;25328;-49
2023/06/23 06:28:54;;;;;;;5.90;5.40;;;;;;;33.91;39.53;101845.17;106802;1262;25819;-49
2023/06/23 06:31:22;;;;;;;5.90;5.40;;;;;;;33.94;39.60;101844.86;107041;1269;25319;-50
2023/06/23 06:33:50;;;;;;;5.70;5.10;;;;;;;33.95;39.45;101843.33;107101;1255;26651;-50
2023/06/23 06:36:19;;;;;;;6.40;5.80;;;;;;;33.91;39.37;101845.89;106952;1267;25333;-49
2023/06/23 06:38:48;;;;;;;5.90;5.00;;;;;;;33.79;39.55;101844.31;106848;1268;22631;-49
2023/06/23 06:41:15;;;;;;;5.80;5.30;;;;;;;33.62;40.32;101846.77;106740;1269;25472;-50
2023/06/23 06:43:42;;;;;;;5.50;5.10;;;;;;;33.42;41.55;101848.23;106821;1267;22524;-49
2023/06/23 06:46:09;;;;;;;5.00;4.60;;;;;;;33.19;42.29;101845.92;106690;1272;25482;-49
2023/06/23 06:48:36;;;;;;;5.10;4.70;;;;;;;32.97;42.79;101847.20;106792;1264;25350;-49
2023/06/23 06:51:03;;;;;;;5.00;4.60;;;;;;;32.77;43.40;101846.28;106903;1264;25337;-50
2023/06/23 06:53:30;;;;;;;5.30;4.80;;;;;;;32.57;43.71;101843.78;107055;1263;25443;-50
2023/06/23 06:55:57;;;;;;;6.00;4.70;;;;;;;32.40;44.19;101847.20;106914;1268;25341;-50
2023/06/23 06:58:25;;;;;;;4.80;4.30;;;;;;;32.26;44.54;101845.95;106852;1267;25409;-50
2023/06/23 07:00:54;;;;;;;4.40;4.10;;;;;;;32.14;44.81;101843.91;107028;1251;24196;-49
2023/06/23 07:03:21;;;;;;;5.00;4.50;;;;;;;32.05;45.16;101850.84;107146;1264;22643;-49
2023/06/23 07:05:49;;;;;;;4.80;4.40;;;;;;;32.03;45.38;101850.06;106907;1256;25473;-49
2023/06/23 07:08:16;;;;;;;4.50;4.10;;;;;;;32.04;45.78;101847.85;107117;1270;25370;-50
2023/06/23 07:10:43;;;;;;;4.40;4.10;;;;;;;32.06;45.72;101847.96;107112;1263;25347;-49
2023/06/23 07:13:10;;;;;;;4.70;4.30;;;;;;;32.04;45.89;101845.71;107091;1264;25353;-49
2023/06/23 07:15:38;;;;;;;3.80;3.50;;;;;;;32.01;46.10;101844.20;106928;1267;25464;-49
2023/06/23 07:18:05;;;;;;;4.30;3.90;;;;;;;31.98;46.17;101844.48;107100;1267;25312;-50
2023/06/23 07:20:33;;;;;;;4.80;4.30;;;;;;;31.96;46.18;101846.23;106793;1270;25349;-48
2023/06/23 07:23:00;;;;;;;4.40;4.10;;;;;;;31.94;46.25;101845.02;106838;1271;25321;-49
2023/06/23 07:25:27;;;;;;;4.40;4.10;;;;;;;31.95;46.17;101841.19;107124;1267;25363;-50
2023/06/23 07:27:54;;;;;;;4.30;3.90;;;;;;;31.98;45.78;101839.08;107037;1254;25370;-50
2023/06/23 07:30:21;;;;;;;4.70;4.30;;;;;;;32.01;45.52;101836.31;107025;1267;25329;-50
2023/06/23 07:32:49;;;;;;;4.50;4.10;;;;;;;32.03;45.45;101836.23;107074;1267;25479;-50
2023/06/23 07:35:16;;;;;;;4.50;3.90;;;;;;;32.04;45.57;101841.75;107139;1251;25344;-49
2023/06/23 07:37:43;;;;;;;4.40;4.00;;;;;;;32.03;45.71;101841.52;107094;1267;25319;-49
2023/06/23 07:40:11;;;;;;;4.30;4.00;;;;;;;32.01;45.91;101841.52;106785;1264;25481;-49
2023/06/23 07:42:40;;;;;;;4.90;4.30;;;;;;;31.98;46.12;101843.23;106857;1269;25395;-49
2023/06/23 07:45:07;;;;;;;4.90;4.50;;;;;;;31.92;46.38;101841.62;107116;1267;24211;-49
2023/06/23 07:47:34;;;;;;;4.50;4.10;;;;;;;31.86;46.60;101844.67;107487;1251;22869;-50
2023/06/23 07:50:01;;;;;;;4.70;4.20;;;;;;;31.79;46.78;101842.62;107381;1257;24243;-49
2023/06/23 07:52:29;;;;;;;5.80;4.40;;;;;;;31.71;46.98;101840.34;107199;1251;23356;-50
2023/06/23 07:54:56;;;;;;;4.70;4.40;;;;;;;31.62;47.42;101837.70;107254;1266;22650;-49
2023/06/23 07:57:23;;;;;;;4.80;4.20;;;;;;;31.53;48.13;101832.80;107476;1256;23124;-49
2023/06/23 07:59:50;;;;;;;4.10;3.80;;;;;;;31.44;48.34;101831.12;107300;1254;25482;-49
2023/06/23 08:02:17;;;;;;;4.60;3.70;;;;;;;31.36;48.02;101826.80;107010;1261;25450;-49
2023/06/23 08:04:44;;;;;;;4.80;4.10;;;;;;;31.30;48.24;101827.91;106338;1267;25472;-49
2023/06/23 08:07:12;;;;;;;4.30;3.90;;;;;;;31.26;48.60;101829.67;106951;1263;24188;-49
2023/06/23 08:09:39;;;;;;;4.60;4.20;;;;;;;31.23;48.07;101826.02;107060;1264;24239;-49
2023/06/23 08:12:07;;;;;;;5.20;3.80;;;;;;;31.21;47.89;101824.42;106722;1263;24223;-49
2023/06/23 08:14:35;;;;;;;4.70;4.20;;;;;;;31.20;47.48;101821.67;107388;1251;24252;-49
2023/06/23 08:17:02;;;;;;;4.70;4.30;;;;;;;31.19;48.24;101822.30;106607;1263;25335;-49
2023/06/23 08:19:30;;;;;;;4.80;4.30;;;;;;;31.15;48.22;101820.84;107014;1264;25340;-48
2023/06/23 08:21:57;;;;;;;5.30;4.80;;;;;;;31.13;47.74;101821.05;107164;1267;25351;-49
2023/06/23 08:24:24;;;;;;;4.50;4.20;;;;;;;31.10;48.35;101820.06;107121;1269;25322;-49
2023/06/23 08:26:51;;;;;;;4.90;4.10;;;;;;;31.08;49.08;101818.64;107084;1264;22609;-49
2023/06/23 08:29:18;;;;;;;5.00;4.50;;;;;;;31.07;49.86;101818.08;106839;1274;25342;-49
2023/06/23 08:31:47;;;;;;;4.20;3.90;;;;;;;31.05;49.00;101819.12;107320;1257;24683;-48
2023/06/23 08:34:14;;;;;;;4.30;3.90;;;;;;;31.03;48.91;101821.24;107167;1251;25309;-48
2023/06/23 08:36:41;;;;;;;4.10;3.80;;;;;;;31.04;49.30;101819.02;107462;1254;25376;-48
2023/06/23 08:39:08;;;;;;;4.30;4.00;;;;;;;31.06;48.86;101822.97;107117;1260;22527;-48
2023/06/23 08:41:38;;;;;;;4.80;4.00;;;;;;;31.08;48.66;101826.38;107515;1258;25340;-48
2023/06/23 08:44:04;;;;;;;4.70;4.20;;;;;;;31.10;49.17;101821.86;107912;1255;22527;-49
2023/06/23 08:46:32;;;;;;;4.60;4.20;;;;;;;31.12;49.58;101817.25;107282;1267;25481;-49
2023/06/23 08:49:14;;;;;;;6.20;4.00;;;;;;;31.20;50.03;101825.63;106968;1273;22579;-48
2023/06/23 08:51:41;;;;;;;6.10;4.70;;;;;;;31.25;49.76;101827.52;107390;1260;22537;-49
2023/06/23 08:54:08;;;;;;;9.70;4.20;;;;;;;31.28;49.63;101826.33;107058;1255;25350;-48
2023/06/23 08:56:36;;;;;;;5.90;3.80;;;;;;;31.28;49.66;101828.77;107124;1258;25321;-49
2023/06/23 08:59:03;;;;;;;5.80;4.30;;;;;;;31.31;49.67;101824.95;107222;1261;25332;-49
2023/06/23 09:01:33;;;;;;;5.20;4.00;;;;;;;31.33;49.52;101822.95;107031;1260;25325;-49
2023/06/23 09:04:01;;;;;;;4.30;3.90;;;;;;;31.30;49.69;101827.33;107495;1258;25364;-49
2023/06/23 09:06:28;;;;;;;7.50;4.10;;;;;;;31.31;50.01;101824.27;107501;1258;25335;-49
2023/06/23 09:08:56;;;;;;;4.90;4.20;;;;;;;31.34;49.94;101821.80;107190;1264;25961;-49
2023/06/23 09:11:23;;;;;;;5.00;4.50;;;;;;;31.38;49.82;101816.95;107549;1263;22677;-49
2023/06/23 09:13:51;;;;;;;5.20;4.00;;;;;;;31.41;49.71;101814.36;106952;1263;22526;-49
2023/06/23 09:16:18;;;;;;;4.60;4.20;;;;;;;31.42;49.34;101814.98;107292;1262;25340;-49
2023/06/23 09:18:46;;;;;;;4.50;4.20;;;;;;;31.43;49.64;101811.66;107807;1254;22997;-49
2023/06/23 09:21:13;;;;;;;5.20;4.70;;;;;;;31.42;49.79;101809.59;107587;1253;22540;-49
2023/06/23 09:23:56;;;;;;;4.50;4.20;;;;;;;31.42;49.47;101809.29;107541;1260;22527;-49
2023/06/23 09:26:23;;;;;;;4.40;4.00;;;;;;;31.38;49.24;101808.48;107364;1255;22694;-50
2023/06/23 09:28:50;;;;;;;4.40;4.10;;;;;;;31.35;49.13;101811.65;107267;1254;25360;-48
2023/06/23 09:31:17;;;;;;;4.60;4.30;;;;;;;31.31;49.19;101810.38;107232;1254;22527;-50
2023/06/23 09:33:49;;;;;;;4.80;4.30;;;;;;;31.29;48.93;101810.75;107181;1256;25482;-50
2023/06/23 09:36:16;;;;;;;4.50;4.20;;;;;;;31.27;48.49;101813.80;107225;1254;25503;-50
2023/06/23 09:38:44;;;;;;;4.80;4.30;;;;;;;31.26;47.41;101821.06;107118;1254;24218;-51
2023/06/23 09:41:14;;;;;;;4.40;4.00;;;;;;;31.25;47.38;101818.13;106892;1258;24226;-49
2023/06/23 09:43:42;;;;;;;4.90;3.90;;;;;;;31.25;47.89;101822.79;106790;1270;25322;-48
2023/06/23 09:46:13;;;;;;;3.60;3.30;;;;;;;31.24;48.25;101825.37;107082;1256;25350;-49
2023/06/23 09:48:42;;;;;;;7.40;4.40;;;;;;;31.22;47.76;101828.42;107037;1254;24239;-48
2023/06/23 09:51:10;;;;;;;4.20;3.80;;;;;;;31.22;47.87;101830.46;107074;1257;25506;-48
2023/06/23 09:53:38;;;;;;;4.80;4.40;;;;;;;31.21;48.47;101825.50;107107;1267;24318;-49
2023/06/23 09:56:07;;;;;;;4.40;4.10;;;;;;;31.23;49.20;101821.05;107409;1257;25404;-48
2023/06/23 09:58:38;;;;;;;5.00;4.60;;;;;;;31.23;48.56;101818.17;107339;1254;25345;-49
2023/06/23 10:01:15;;;;;;;4.30;4.00;;;;;;;31.24;48.15;101816.32;107302;1259;25436;-49
2023/06/23 10:03:50;;;;;;;5.90;3.70;;;;;;;31.24;48.60;101812.53;107299;1253;22806;-49
2023/06/23 10:06:26;;;;;;;4.40;4.00;;;;;;;31.26;48.85;101808.74;107607;1254;22528;-49
2023/06/23 10:08:54;;;;;;;4.40;4.00;;;;;;;31.28;48.65;101807.96;107557;1260;22528;-48
2023/06/23 10:11:38;;;;;;;4.60;4.20;;;;;;;31.31;48.02;101808.09;106976;1266;25353;-50
2023/06/23 10:14:10;;;;;;;4.90;4.00;;;;;;;31.34;48.17;101801.90;107046;1257;23331;-49
2023/06/23 10:16:43;;;;;;;5.00;3.80;;;;;;;31.35;47.93;101800.34;107254;1253;25368;-49
2023/06/23 10:19:10;;;;;;;4.50;4.10;;;;;;;31.37;47.60;101799.48;107171;1257;25245;-48
2023/06/23 10:21:38;;;;;;;4.30;3.90;;;;;;;31.37;47.46;101803.92;107234;1261;25350;-49
2023/06/23 10:24:13;;;;;;;4.30;4.00;;;;;;;31.37;47.19;101800.56;107272;1251;24234;-49
2023/06/23 10:26:40;;;;;;;4.80;4.00;;;;;;;31.36;47.40;101808.70;107059;1261;24379;-48
2023/06/23 10:29:12;;;;;;;4.10;3.80;;;;;;;31.36;47.91;101807.30;107208;1256;25363;-50
2023/06/23 10:31:40;;;;;;;4.80;4.00;;;;;;;31.35;47.99;101810.63;107458;1253;25309;-49
2023/06/23 10:34:15;;;;;;;4.90;4.20;;;;;;;31.34;48.01;101807.96;107502;1254;25373;-49
2023/06/23 10:36:43;;;;;;;4.30;4.00;;;;;;;31.34;47.10;101803.33;107315;1257;25319;-48
2023/06/23 10:39:10;;;;;;;4.30;3.80;;;;;;;31.33;46.39;101804.48;107217;1254;25335;-48
2023/06/23 10:41:39;;;;;;;3.90;3.60;;;;;;;31.30;46.80;101800.44;107601;1266;25345;-49
2023/06/23 10:44:08;;;;;;;4.00;3.70;;;;;;;31.28;47.21;101800.66;107325;1257;22512;-48
2023/06/23 10:46:35;;;;;;;4.30;3.90;;;;;;;31.26;47.34;101799.38;107379;1250;25364;-48
2023/06/23 10:49:07;;;;;;;4.60;4.20;;;;;;;31.25;47.14;101796.46;106939;1259;25376;-48
2023/06/23 10:51:34;;;;;;;6.20;4.10;;;;;;;31.23;47.32;101795.20;106867;1254;25384;-48
2023/06/23 10:54:05;;;;;;;4.70;4.30;;;;;;;31.22;47.21;101792.82;107154;1257;25353;-48
2023/06/23 10:56:33;;;;;;;4.70;4.30;;;;;;;31.20;47.60;101790.64;107614;1257;25486;-48
2023/06/23 10:59:17;;;;;;;4.40;4.10;;;;;;;31.19;47.95;101790.91;107079;1258;25346;-48
2023/06/23 11:01:59;;;;;;;4.50;3.90;;;;;;;31.19;48.12;101789.08;107229;1257;22541;-48
2023/06/23 11:04:30;;;;;;;4.30;3.90;;;;;;;31.20;48.14;101787.92;107109;1251;25402;-48
2023/06/23 11:07:05;;;;;;;5.10;4.20;;;;;;;31.22;47.83;101782.91;107119;1256;22536;-48
2023/06/23 11:10:01;;;;;;;4.20;3.90;;;;;;;31.24;47.84;101785.41;107366;1251;22541;-49
2023/06/23 11:12:36;;;;;;;4.40;4.10;;;;;;;31.26;47.81;101782.38;107088;1258;25373;-48
2023/06/23 11:15:13;;;;;;;4.20;3.90;;;;;;;31.30;47.90;101781.33;107396;1257;25386;-49
2023/06/23 11:17:43;;;;;;;4.40;4.00;;;;;;;31.31;47.82;101780.61;107282;1261;25341;-51
2023/06/23 11:20:12;;;;;;;6.20;4.30;;;;;;;31.32;47.91;101778.07;107188;1267;23317;-49
2023/06/23 11:22:55;;;;;;;4.60;4.10;;;;;;;31.32;47.91;101770.90;107065;1252;22560;-51
2023/06/23 11:25:23;;;;;;;4.40;4.10;;;;;;;31.31;47.76;101765.73;106848;1264;25324;-48
2023/06/23 11:28:27;;;;;;;5.00;4.10;;;;;;;31.31;47.96;101768.65;107234;1265;25361;-48